This is the latest recevied weather packets stored in our database for station/object KH6DH-13. If no packets are shown the sender has not sent any weather packets the latest 10 day(s).
| Time | Temp. | Humidity | Pressure | Rain* | Wind** | Luminosity | Snow |
|---|---|---|---|---|---|---|---|
| 1778138779 | 24.44° C | - | - | 0 mm | 1.34 m/s, 93° | - | - |
| 1778138178 | 24.44° C | - | - | 0 mm | 2.24 m/s, 70° | - | - |
| 1778137577 | 25° C | - | - | 0 mm | 2.24 m/s, 56° | - | - |
| 1778136976 | 24.44° C | - | - | 0 mm | 1.79 m/s, 49° | - | - |
| 1778136375 | 25° C | - | - | 0 mm | 0.89 m/s, 66° | - | - |
| 1778135774 | 24.44° C | - | - | 0 mm | 1.79 m/s, 55° | - | - |
| 1778135173 | 24.44° C | - | - | 0 mm | 0.89 m/s, 80° | - | - |
| 1778134572 | 24.44° C | - | - | 0 mm | 0.45 m/s, 98° | - | - |
| 1778133971 | 25° C | - | - | 0 mm | 0.89 m/s, 60° | - | - |
| 1778133370 | 25° C | - | - | 0 mm | 0.89 m/s, 49° | - | - |
| 1778132769 | 24.44° C | - | - | 0 mm | 1.79 m/s, 18° | - | - |
| 1778132168 | 24.44° C | - | - | 0 mm | 0.89 m/s, 96° | - | - |
| 1778131567 | 24.44° C | - | - | 0 mm | 1.34 m/s, 65° | - | - |
| 1778130962 | 25° C | - | - | 0 mm | 0.89 m/s, 59° | - | - |
| 1778130361 | 25° C | - | - | 0 mm | 1.34 m/s, 18° | - | - |
| 1778129760 | 25° C | - | - | 0 mm | 1.79 m/s, 62° | - | - |
| 1778129159 | 25° C | - | - | 0 mm | 1.79 m/s, 56° | - | - |
| 1778128558 | 25° C | - | - | 0 mm | 2.68 m/s, 73° | - | - |
| 1778127957 | 25° C | - | - | 0 mm | 2.24 m/s, 31° | - | - |
| 1778127356 | 25.56° C | - | - | 0 mm | 1.79 m/s, 65° | - | - |
| 1778126755 | 25.56° C | - | - | 0 mm | 1.34 m/s, 49° | - | - |
| 1778126154 | 25.56° C | - | - | 0 mm | 0.89 m/s, 134° | - | - |
| 1778125553 | 25.56° C | - | - | 0 mm | 1.34 m/s, 100° | - | - |
| 1778124949 | 25.56° C | - | - | 0 mm | 1.79 m/s, 38° | - | - |
| 1778124348 | 25.56° C | - | - | 0 mm | 1.79 m/s, 48° | - | - |
* Rain latest hour (hover to see other rain measurements)
** Current wind speed in m/s (hover to see current wind gust speed)